createdAt,value
2022-10-05T00:01:40.491Z,5.97
2022-10-05T00:04:13.527Z,6.82
2022-10-05T00:06:40.123Z,6.75
2022-10-05T00:09:12.939Z,5.80
2022-10-05T00:11:41.038Z,6.63
2022-10-05T00:14:17.049Z,7.32
2022-10-05T00:16:44.141Z,5.07
2022-10-05T00:19:19.236Z,8.65
2022-10-05T00:21:45.668Z,5.05
2022-10-05T00:24:15.306Z,6.18
2022-10-05T00:26:43.210Z,6.55
2022-10-05T00:29:19.272Z,5.60
2022-10-05T00:31:45.810Z,6.55
2022-10-05T00:34:12.282Z,7.03
2022-10-05T00:36:39.788Z,7.70
2022-10-05T00:39:06.316Z,6.00
2022-10-05T00:41:44.977Z,8.18
2022-10-05T00:44:43.133Z,5.68
2022-10-05T00:47:33.133Z,5.35
2022-10-05T00:50:37.458Z,5.07
2022-10-05T00:53:12.144Z,5.97
2022-10-05T00:55:51.444Z,6.20
2022-10-05T00:58:32.511Z,4.63
2022-10-05T01:01:05.966Z,6.40
2022-10-05T01:03:47.561Z,6.68
2022-10-05T01:06:21.826Z,6.07
2022-10-05T01:08:54.989Z,6.25
2022-10-05T01:11:29.925Z,4.25
2022-10-05T01:14:05.234Z,8.40
2022-10-05T01:16:39.257Z,5.25
2022-10-05T01:19:20.041Z,6.70
2022-10-05T01:21:56.976Z,6.05
2022-10-05T01:24:41.772Z,5.93
2022-10-05T01:27:18.086Z,8.52
2022-10-05T01:29:52.273Z,7.63
2022-10-05T01:32:25.008Z,6.47
2022-10-05T01:35:00.998Z,5.77
2022-10-05T01:37:34.568Z,5.18
2022-10-05T01:40:07.246Z,6.38
2022-10-05T01:42:46.137Z,6.50
2022-10-05T01:45:23.229Z,8.80
2022-10-05T01:47:54.679Z,7.22
2022-10-05T01:50:32.252Z,7.32
2022-10-05T01:53:06.258Z,5.13
2022-10-05T01:55:40.090Z,9.55
2022-10-05T01:58:14.909Z,7.18
2022-10-05T02:00:51.698Z,5.93
2022-10-05T02:03:23.539Z,7.32
2022-10-05T02:05:52.994Z,10.57
2022-10-05T02:08:26.831Z,6.65
2022-10-05T02:10:59.477Z,7.15
2022-10-05T02:13:30.652Z,7.82
2022-10-05T02:16:03.213Z,7.20
2022-10-05T02:18:33.893Z,8.60
2022-10-05T02:21:02.242Z,6.97
2022-10-05T02:23:33.184Z,6.53
2022-10-05T02:26:01.029Z,7.68
2022-10-05T02:28:33.330Z,5.90
2022-10-05T02:31:07.629Z,7.20
2022-10-05T02:33:35.069Z,5.00
2022-10-05T02:36:05.245Z,6.68
2022-10-05T02:38:39.880Z,6.13
2022-10-05T02:41:18.462Z,7.28
2022-10-05T02:43:51.144Z,16.65
2022-10-05T02:46:29.091Z,8.10
2022-10-05T02:49:09.992Z,7.13
2022-10-05T02:51:46.723Z,5.88
2022-10-05T02:54:27.954Z,7.78
2022-10-05T02:56:59.969Z,6.70
2022-10-05T02:59:33.471Z,6.88
2022-10-05T03:02:09.875Z,6.85
2022-10-05T03:04:42.552Z,10.95
2022-10-05T03:07:15.907Z,7.63
2022-10-05T03:09:47.836Z,6.10
2022-10-05T03:12:31.248Z,11.77
2022-10-05T03:15:09.264Z,8.30
2022-10-05T03:17:48.966Z,8.15
2022-10-05T03:20:29.532Z,6.82
2022-10-05T03:23:00.496Z,8.27
2022-10-05T03:25:50.657Z,7.55
2022-10-05T03:28:23.480Z,6.75
2022-10-05T03:30:58.602Z,7.73
2022-10-05T03:33:32.910Z,9.52
2022-10-05T03:36:06.121Z,7.68
2022-10-05T03:38:41.416Z,11.40
2022-10-05T03:41:15.065Z,7.38
2022-10-05T03:46:44.804Z,8.18
2022-10-05T03:49:21.815Z,8.75
2022-10-05T03:51:51.677Z,10.40
2022-10-05T03:54:22.934Z,11.60
2022-10-05T03:56:54.698Z,7.40
2022-10-05T03:59:30.152Z,11.00
2022-10-05T04:02:02.209Z,10.18
2022-10-05T04:04:34.693Z,7.85
2022-10-05T04:07:02.117Z,8.55
2022-10-05T04:09:35.155Z,6.30
2022-10-05T04:12:10.991Z,9.07
2022-10-05T04:14:41.490Z,6.93
2022-10-05T04:17:12.556Z,8.38
2022-10-05T04:19:45.137Z,7.68
2022-10-05T04:22:17.335Z,7.47
2022-10-05T04:24:49.267Z,9.60
2022-10-05T04:27:19.330Z,6.72
2022-10-05T04:29:53.259Z,11.18
2022-10-05T04:32:29.259Z,8.05
2022-10-05T04:35:12.370Z,7.28
2022-10-05T04:37:49.767Z,10.03
2022-10-05T04:40:33.651Z,7.10
2022-10-05T04:43:08.262Z,8.10
2022-10-05T04:45:49.093Z,8.15
2022-10-05T04:48:38.723Z,7.45
2022-10-05T04:51:20.550Z,9.35
2022-10-05T04:53:53.942Z,9.10
2022-10-05T04:56:28.885Z,7.30
2022-10-05T04:59:10.189Z,7.65
2022-10-05T05:01:49.793Z,8.73
2022-10-05T05:04:35.622Z,10.65
2022-10-05T05:07:17.867Z,10.07
2022-10-05T05:10:13.549Z,9.02
2022-10-05T05:12:50.812Z,9.60
2022-10-05T05:15:28.237Z,12.25
2022-10-05T05:18:12.684Z,7.00
2022-10-05T05:20:54.198Z,8.20
2022-10-05T05:23:29.151Z,6.70
2022-10-05T05:26:05.788Z,11.00
2022-10-05T05:28:39.464Z,9.07
2022-10-05T05:31:14.703Z,10.68
2022-10-05T05:33:49.892Z,7.85
2022-10-05T05:36:30.019Z,8.68
2022-10-05T05:39:15.920Z,8.63
2022-10-05T05:41:54.221Z,10.93
2022-10-05T05:44:24.865Z,7.70
2022-10-05T05:47:03.959Z,9.35
2022-10-05T05:49:42.261Z,9.55
2022-10-05T05:52:15.973Z,8.40
2022-10-05T05:57:17.398Z,12.57
2022-10-05T05:59:53.466Z,8.80
2022-10-05T06:02:24.359Z,10.38
2022-10-05T06:04:55.644Z,12.20
2022-10-05T06:07:30.532Z,10.32
2022-10-05T06:10:06.139Z,9.68
2022-10-05T06:12:36.857Z,11.25
2022-10-05T06:15:13.464Z,9.77
2022-10-05T06:17:45.146Z,9.40
2022-10-05T06:20:20.477Z,13.52
2022-10-05T06:22:48.809Z,9.75
2022-10-05T06:25:25.661Z,9.55
2022-10-05T06:28:02.928Z,10.95
2022-10-05T06:30:43.148Z,11.20
2022-10-05T06:33:22.701Z,9.90
2022-10-05T06:36:03.790Z,9.60
2022-10-05T06:38:48.144Z,10.70
2022-10-05T06:41:21.940Z,8.10
2022-10-05T06:43:57.058Z,11.23
2022-10-05T06:46:28.054Z,12.88
2022-10-05T06:49:16.480Z,9.43
2022-10-05T06:51:51.456Z,8.60
2022-10-05T06:54:36.965Z,10.63
2022-10-05T06:57:10.331Z,14.75
2022-10-05T06:59:46.385Z,10.20
2022-10-05T07:02:21.193Z,8.93
2022-10-05T07:04:59.173Z,8.98
2022-10-05T07:07:37.400Z,12.13
2022-10-05T07:10:17.138Z,9.48
2022-10-05T07:12:58.253Z,8.23
2022-10-05T07:15:44.720Z,9.73
2022-10-05T07:18:28.795Z,7.28
2022-10-05T07:21:03.902Z,7.40
2022-10-05T07:23:45.982Z,8.43
2022-10-05T07:26:21.903Z,13.05
2022-10-05T07:28:57.837Z,9.48
2022-10-05T07:31:32.943Z,11.48
2022-10-05T07:34:06.528Z,8.02
2022-10-05T07:39:10.613Z,8.18
2022-10-05T07:41:42.300Z,10.32
2022-10-05T07:44:15.876Z,11.93
2022-10-05T07:49:22.604Z,9.75
2022-10-05T07:51:52.907Z,9.40
2022-10-05T07:54:25.039Z,10.38
2022-10-05T07:56:59.843Z,9.15
2022-10-05T07:59:34.540Z,13.13
2022-10-05T08:02:11.594Z,12.98
2022-10-05T08:04:45.784Z,13.70
2022-10-05T08:07:15.612Z,9.68
2022-10-05T08:09:46.260Z,9.70
2022-10-05T08:12:25.253Z,7.88
2022-10-05T08:14:57.049Z,8.63
2022-10-05T08:17:35.481Z,14.38
2022-10-05T08:20:15.998Z,11.40
2022-10-05T08:22:49.235Z,11.57
2022-10-05T08:25:22.000Z,9.55
2022-10-05T08:27:55.915Z,10.23
2022-10-05T08:30:23.745Z,9.00
2022-10-05T08:32:54.893Z,9.80
2022-10-05T08:35:28.475Z,11.18
2022-10-05T08:41:03.621Z,9.63
2022-10-05T08:44:29.072Z,7.95
2022-10-05T08:47:14.990Z,9.85
2022-10-05T08:50:12.831Z,10.07
2022-10-05T08:53:01.142Z,10.77
2022-10-05T08:55:46.900Z,8.50
2022-10-05T08:58:52.244Z,15.18
2022-10-05T09:01:25.860Z,7.50
2022-10-05T09:06:54.437Z,8.00
2022-10-05T09:09:47.458Z,10.05
2022-10-05T09:12:39.805Z,8.45
2022-10-05T09:15:31.601Z,8.38
2022-10-05T09:18:36.227Z,7.55
2022-10-05T09:21:12.773Z,6.95
2022-10-05T09:23:40.890Z,7.63
2022-10-05T09:26:28.455Z,6.45
2022-10-05T09:29:14.205Z,10.82
2022-10-05T09:31:55.717Z,6.60
2022-10-05T09:34:54.688Z,6.72
2022-10-05T09:37:38.775Z,7.30
2022-10-05T09:40:40.498Z,9.27
2022-10-05T09:43:47.881Z,7.00
2022-10-05T09:46:44.068Z,7.68
2022-10-05T09:49:33.724Z,9.05
2022-10-05T09:52:18.989Z,7.15
2022-10-05T09:55:19.465Z,11.80
2022-10-05T09:58:08.400Z,7.35
2022-10-05T10:00:58.817Z,5.30
2022-10-05T10:04:03.257Z,8.02
2022-10-05T10:07:24.496Z,5.63
2022-10-05T10:10:33.046Z,7.32
2022-10-05T10:13:22.178Z,7.35
2022-10-05T10:16:13.147Z,7.65
2022-10-05T10:19:05.666Z,4.88
2022-10-05T10:22:09.476Z,7.32
2022-10-05T10:24:58.896Z,6.55
2022-10-05T10:27:38.478Z,5.93
2022-10-05T10:30:36.534Z,7.47
2022-10-05T10:33:30.604Z,6.32
2022-10-05T10:36:06.076Z,7.35
2022-10-05T10:38:39.974Z,6.07
2022-10-05T10:41:26.947Z,6.57
2022-10-05T10:44:34.567Z,4.10
2022-10-05T10:47:27.257Z,7.65
2022-10-05T10:50:25.227Z,4.85
2022-10-05T10:53:04.590Z,5.95
2022-10-05T10:55:41.926Z,7.47
2022-10-05T10:58:59.859Z,6.90
2022-10-05T11:01:32.673Z,5.72
2022-10-05T11:04:31.025Z,6.03
2022-10-05T11:07:31.809Z,6.70
2022-10-05T11:10:29.498Z,4.88
2022-10-05T11:13:16.779Z,5.88
2022-10-05T11:16:14.594Z,4.63
2022-10-05T11:19:03.698Z,4.97
2022-10-05T11:21:38.421Z,5.30
2022-10-05T11:24:41.797Z,6.50
2022-10-05T11:27:33.570Z,5.07
2022-10-05T11:30:22.465Z,7.68
2022-10-05T11:33:10.345Z,6.68
2022-10-05T11:35:59.229Z,6.65
2022-10-05T11:38:47.058Z,4.88
2022-10-05T11:41:50.637Z,4.15
2022-10-05T11:44:59.763Z,4.05
2022-10-05T11:47:28.871Z,6.68
2022-10-05T11:50:04.247Z,5.03
2022-10-05T11:52:38.428Z,5.70
2022-10-05T11:55:24.197Z,4.43
2022-10-05T11:57:55.797Z,3.80
2022-10-05T12:00:23.603Z,4.97
2022-10-05T12:03:20.850Z,4.00
2022-10-05T12:06:00.011Z,4.78
2022-10-05T12:08:39.983Z,6.07
2022-10-05T12:11:25.538Z,4.25
2022-10-05T12:13:59.534Z,6.57
2022-10-05T12:16:31.581Z,4.20
2022-10-05T12:19:04.442Z,3.95
2022-10-05T12:21:40.442Z,4.18
2022-10-05T12:24:16.008Z,6.03
2022-10-05T12:26:50.356Z,10.85
2022-10-05T12:29:23.711Z,4.57
2022-10-05T12:31:58.542Z,8.38
2022-10-05T12:34:36.761Z,5.70
2022-10-05T12:37:12.950Z,6.60
2022-10-05T12:39:45.465Z,3.67
2022-10-05T12:42:25.859Z,3.92
2022-10-05T12:45:12.492Z,4.10
2022-10-05T12:47:54.015Z,5.15
2022-10-05T12:50:27.431Z,5.65
2022-10-05T12:53:13.668Z,6.32
2022-10-05T12:55:47.849Z,4.72
2022-10-05T12:58:28.534Z,6.20
2022-10-05T13:00:59.434Z,6.43
2022-10-05T13:03:34.136Z,3.90
2022-10-05T13:06:13.352Z,3.28
2022-10-05T13:08:49.439Z,5.45
2022-10-05T13:11:23.715Z,5.38
2022-10-05T13:14:02.271Z,4.88
2022-10-05T13:16:38.300Z,2.92
2022-10-05T13:19:19.548Z,4.25
2022-10-05T13:22:13.210Z,2.38
2022-10-05T13:24:52.205Z,3.55
2022-10-05T13:27:21.818Z,3.40
2022-10-05T13:29:54.700Z,5.72
2022-10-05T13:32:23.927Z,3.17
2022-10-05T13:34:57.354Z,5.78
2022-10-05T13:37:31.184Z,6.00
2022-10-05T13:40:10.987Z,3.20
2022-10-05T13:42:43.264Z,3.03
2022-10-05T13:45:17.527Z,3.55
2022-10-05T13:47:55.264Z,3.67
2022-10-05T13:50:28.443Z,4.63
2022-10-05T13:53:07.459Z,3.22
2022-10-05T13:55:42.990Z,4.07
2022-10-05T13:58:19.055Z,2.80
2022-10-05T14:00:53.405Z,5.07
2022-10-05T14:03:29.873Z,2.88
2022-10-05T14:05:58.208Z,4.80
2022-10-05T14:08:31.906Z,4.03
2022-10-05T14:10:58.378Z,3.55
2022-10-05T14:13:29.038Z,2.72
2022-10-05T14:15:59.740Z,5.82
2022-10-05T14:18:28.851Z,4.07
2022-10-05T14:21:14.244Z,2.92
2022-10-05T14:23:40.990Z,2.83
2022-10-05T14:26:17.969Z,2.72
2022-10-05T14:28:57.127Z,3.00
2022-10-05T14:31:31.558Z,4.07
2022-10-05T14:34:26.878Z,4.28
2022-10-05T14:36:58.013Z,5.28
2022-10-05T14:39:26.139Z,2.78
2022-10-05T14:41:52.794Z,4.65
2022-10-05T14:44:28.778Z,2.80
2022-10-05T14:46:58.322Z,4.32
2022-10-05T14:49:27.285Z,4.80
2022-10-05T14:51:55.301Z,5.18
2022-10-05T14:54:26.808Z,4.25
2022-10-05T14:57:05.132Z,4.35
2022-10-05T14:59:48.234Z,3.75
2022-10-05T15:02:45.407Z,5.50
2022-10-05T15:05:16.987Z,3.80
2022-10-05T15:07:45.851Z,5.55
2022-10-05T15:10:31.958Z,4.35
2022-10-05T15:13:11.335Z,4.28
2022-10-05T15:15:44.803Z,5.28
2022-10-05T15:18:27.161Z,3.72
2022-10-05T15:21:02.911Z,3.72
2022-10-05T15:23:37.798Z,5.63
2022-10-05T15:26:19.811Z,4.07
2022-10-05T15:28:53.676Z,8.57
2022-10-05T15:31:29.264Z,7.72
2022-10-05T15:34:02.911Z,3.40
2022-10-05T15:36:37.233Z,4.50
2022-10-05T15:39:11.690Z,5.28
2022-10-05T15:41:55.817Z,4.45
2022-10-05T15:44:31.572Z,3.42
2022-10-05T15:47:05.778Z,4.43
2022-10-05T15:49:41.428Z,5.82
2022-10-05T15:52:18.472Z,3.45
2022-10-05T15:55:20.260Z,3.40
2022-10-05T15:57:55.978Z,4.25
2022-10-05T16:00:24.755Z,5.68
2022-10-05T16:02:57.305Z,3.53
2022-10-05T16:05:34.391Z,3.63
2022-10-05T16:08:01.058Z,4.30
2022-10-05T16:10:32.993Z,4.20
2022-10-05T16:13:15.021Z,3.08
2022-10-05T16:15:45.975Z,3.63
2022-10-05T16:18:39.586Z,2.90
2022-10-05T16:21:21.971Z,4.15
2022-10-05T16:24:12.635Z,4.47
2022-10-05T16:26:52.619Z,4.50
2022-10-05T16:29:28.450Z,2.70
2022-10-05T16:32:00.129Z,5.85
2022-10-05T16:34:38.453Z,4.32
2022-10-05T16:37:18.552Z,5.43
2022-10-05T16:39:54.087Z,3.92
2022-10-05T16:42:35.028Z,6.38
2022-10-05T16:45:14.932Z,3.85
2022-10-05T16:47:49.246Z,5.25
2022-10-05T16:50:23.224Z,6.45
2022-10-05T16:52:55.984Z,5.10
2022-10-05T16:55:30.329Z,4.17
2022-10-05T16:57:59.373Z,5.88
2022-10-05T17:00:34.665Z,4.20
2022-10-05T17:03:12.568Z,6.03
2022-10-05T17:06:11.408Z,5.22
2022-10-05T17:08:55.922Z,4.38
2022-10-05T17:11:34.657Z,4.97
2022-10-05T17:14:20.414Z,8.63
2022-10-05T17:16:59.918Z,5.10
2022-10-05T17:19:47.292Z,8.68
2022-10-05T17:22:28.660Z,12.48
2022-10-05T17:25:06.819Z,6.88
2022-10-05T17:27:50.869Z,4.68
2022-10-05T17:30:47.158Z,4.75
2022-10-05T17:33:20.395Z,4.38
2022-10-05T17:35:53.442Z,4.63
2022-10-05T17:38:22.432Z,3.90
2022-10-05T17:41:24.300Z,5.18
2022-10-05T17:44:17.033Z,5.57
2022-10-05T17:46:45.004Z,5.45
2022-10-05T17:49:49.893Z,5.72
2022-10-05T17:52:25.281Z,4.55
2022-10-05T17:55:00.469Z,5.82
2022-10-05T17:57:28.471Z,4.43
2022-10-05T18:00:00.612Z,5.20
2022-10-05T18:02:42.285Z,3.97
2022-10-05T18:05:25.098Z,4.32
2022-10-05T18:08:28.907Z,4.28
2022-10-05T18:11:11.896Z,4.32
2022-10-05T18:13:42.802Z,5.47
2022-10-05T18:16:10.270Z,5.90
2022-10-05T18:18:55.748Z,5.45
2022-10-05T18:21:31.476Z,5.15
2022-10-05T18:24:07.500Z,5.20
2022-10-05T18:26:41.645Z,4.03
2022-10-05T18:29:23.183Z,3.97
2022-10-05T18:31:57.573Z,4.15
2022-10-05T18:34:29.991Z,4.70
2022-10-05T18:37:18.062Z,4.70
2022-10-05T18:40:00.092Z,3.85
2022-10-05T18:42:36.496Z,3.60
2022-10-05T18:45:21.725Z,3.58
2022-10-05T18:48:02.107Z,5.10
2022-10-05T18:50:36.867Z,4.55
2022-10-05T18:53:17.949Z,4.85
2022-10-05T18:55:47.619Z,4.20
2022-10-05T18:58:20.108Z,4.22
2022-10-05T19:01:28.611Z,3.63
2022-10-05T19:04:08.792Z,4.93
2022-10-05T19:06:43.679Z,5.28
2022-10-05T19:09:23.455Z,4.45
2022-10-05T19:11:57.359Z,5.15
2022-10-05T19:14:33.930Z,6.18
2022-10-05T19:17:18.105Z,3.35
2022-10-05T19:20:05.142Z,4.78
2022-10-05T19:22:46.244Z,4.95
2022-10-05T19:25:24.326Z,4.22
2022-10-05T19:28:02.245Z,4.18
2022-10-05T19:30:43.268Z,5.80
2022-10-05T19:33:25.556Z,6.07
2022-10-05T19:36:04.465Z,5.07
2022-10-05T19:38:40.992Z,6.47
2022-10-05T19:41:14.248Z,7.20
2022-10-05T19:44:04.631Z,5.18
2022-10-05T19:46:53.629Z,4.75
2022-10-05T19:49:39.862Z,4.57
2022-10-05T19:52:11.845Z,9.73
2022-10-05T19:54:38.491Z,6.25
2022-10-05T19:57:15.575Z,3.88
2022-10-05T19:59:45.898Z,4.22
2022-10-05T20:02:15.337Z,3.70
2022-10-05T20:04:43.619Z,3.53
2022-10-05T20:07:15.603Z,3.53
2022-10-05T20:09:51.110Z,3.85
2022-10-05T20:12:17.707Z,3.15
2022-10-05T20:14:44.294Z,5.20
2022-10-05T20:17:15.501Z,5.22
2022-10-05T20:19:41.945Z,6.93
2022-10-05T20:22:32.189Z,5.57
2022-10-05T20:25:00.239Z,3.15
2022-10-05T20:27:43.091Z,6.07
2022-10-05T20:30:11.790Z,5.00
2022-10-05T20:32:38.455Z,5.93
2022-10-05T20:35:05.796Z,4.43
2022-10-05T20:37:33.632Z,6.55
2022-10-05T20:40:00.107Z,5.45
2022-10-05T20:42:26.563Z,6.45
2022-10-05T20:44:56.710Z,4.93
2022-10-05T20:47:23.857Z,3.50
2022-10-05T20:49:50.353Z,4.15
2022-10-05T20:52:16.782Z,4.03
2022-10-05T20:57:15.888Z,4.17
2022-10-05T20:59:42.315Z,2.90
2022-10-05T21:02:08.873Z,3.65
2022-10-05T21:04:40.232Z,4.60
2022-10-05T21:07:07.768Z,3.60
2022-10-05T21:09:34.226Z,6.75
2022-10-05T21:12:01.963Z,4.45
2022-10-05T21:14:28.509Z,3.20
2022-10-05T21:16:54.972Z,3.85
2022-10-05T21:19:21.380Z,4.25
2022-10-05T21:21:47.767Z,2.60
2022-10-05T21:24:15.005Z,3.88
2022-10-05T21:26:42.381Z,6.82
2022-10-05T21:29:12.744Z,4.00
2022-10-05T21:31:40.014Z,3.83
2022-10-05T21:34:06.752Z,4.20
2022-10-05T21:36:33.242Z,4.22
2022-10-05T21:38:59.726Z,4.55
2022-10-05T21:41:26.474Z,5.78
2022-10-05T21:43:53.077Z,2.58
2022-10-05T21:46:23.031Z,3.92
2022-10-05T21:48:49.940Z,3.40
2022-10-05T21:51:18.396Z,3.72
2022-10-05T21:53:49.870Z,3.53
2022-10-05T21:56:19.194Z,4.47
2022-10-05T21:58:47.349Z,3.92
2022-10-05T22:01:15.942Z,3.75
2022-10-05T22:03:45.648Z,3.58
2022-10-05T22:06:12.155Z,4.05
2022-10-05T22:08:38.691Z,3.53
2022-10-05T22:11:14.205Z,3.25
2022-10-05T22:13:43.333Z,5.57
2022-10-05T22:16:10.383Z,4.03
2022-10-05T22:18:37.358Z,2.95
2022-10-05T22:21:06.326Z,2.92
2022-10-05T22:23:33.309Z,7.68
2022-10-05T22:26:00.084Z,5.00
2022-10-05T22:28:27.507Z,2.50
2022-10-05T22:30:54.256Z,3.92
2022-10-05T22:33:20.657Z,4.03
2022-10-05T22:35:47.169Z,3.40
2022-10-05T22:38:14.987Z,5.05
2022-10-05T22:40:41.390Z,2.58
2022-10-05T22:43:08.010Z,3.70
2022-10-05T22:45:34.577Z,4.45
2022-10-05T22:48:01.045Z,7.22
2022-10-05T22:50:27.591Z,4.25
2022-10-05T22:52:54.028Z,3.88
2022-10-05T22:55:21.855Z,2.92
2022-10-05T22:57:48.259Z,5.72
2022-10-05T23:00:15.301Z,4.22
2022-10-05T23:02:43.404Z,3.97
2022-10-05T23:05:10.958Z,3.03
2022-10-05T23:07:38.240Z,2.72
2022-10-05T23:10:06.235Z,2.85
2022-10-05T23:12:34.084Z,4.55
2022-10-05T23:15:00.636Z,5.05
2022-10-05T23:17:27.142Z,2.40
2022-10-05T23:19:54.405Z,7.60
2022-10-05T23:22:21.056Z,5.50
2022-10-05T23:24:47.483Z,3.33
2022-10-05T23:27:13.934Z,5.15
2022-10-05T23:29:41.749Z,3.15
2022-10-05T23:32:08.175Z,3.47
2022-10-05T23:34:34.651Z,3.33
2022-10-05T23:37:01.115Z,3.53
2022-10-05T23:39:27.633Z,4.00
2022-10-05T23:41:54.070Z,3.60
2022-10-05T23:44:20.495Z,3.75
2022-10-05T23:46:48.943Z,3.30
2022-10-05T23:49:15.414Z,2.60
2022-10-05T23:51:41.815Z,3.03
2022-10-05T23:54:08.241Z,3.92
2022-10-05T23:56:34.691Z,3.35
2022-10-05T23:59:01.088Z,3.15
